sensor_id;sensor_type;location;lat;lon;timestamp;temperature;humidity
1686;DHT22;840;47.980;7.830;2023-08-24T00:01:56;25.00;99.90
1686;DHT22;840;47.980;7.830;2023-08-24T00:04:23;24.90;99.90
1686;DHT22;840;47.980;7.830;2023-08-24T00:06:49;24.90;99.90
1686;DHT22;840;47.980;7.830;2023-08-24T00:09:15;24.90;99.90
1686;DHT22;840;47.980;7.830;2023-08-24T00:11:42;24.80;99.90
1686;DHT22;840;47.980;7.830;2023-08-24T00:14:09;24.80;99.90
1686;DHT22;840;47.980;7.830;2023-08-24T00:16:37;24.80;99.90
1686;DHT22;840;47.980;7.830;2023-08-24T00:19:04;24.70;99.90
1686;DHT22;840;47.980;7.830;2023-08-24T00:21:32;24.70;99.90
1686;DHT22;840;47.980;7.830;2023-08-24T00:23:59;24.60;99.90
1686;DHT22;840;47.980;7.830;2023-08-24T00:26:26;24.60;99.90
1686;DHT22;840;47.980;7.830;2023-08-24T00:28:52;24.50;99.90
1686;DHT22;840;47.980;7.830;2023-08-24T00:31:19;24.50;99.90
1686;DHT22;840;47.980;7.830;2023-08-24T00:33:47;24.50;99.90
1686;DHT22;840;47.980;7.830;2023-08-24T00:36:16;24.50;99.90
1686;DHT22;840;47.980;7.830;2023-08-24T00:38:43;24.40;99.90
1686;DHT22;840;47.980;7.830;2023-08-24T00:41:10;24.40;99.90
1686;DHT22;840;47.980;7.830;2023-08-24T00:43:39;24.40;99.90
1686;DHT22;840;47.980;7.830;2023-08-24T00:46:06;24.40;99.90
1686;DHT22;840;47.980;7.830;2023-08-24T00:48:33;24.40;99.90
1686;DHT22;840;47.980;7.830;2023-08-24T00:51:02;24.40;99.90
1686;DHT22;840;47.980;7.830;2023-08-24T00:53:30;24.40;99.90
1686;DHT22;840;47.980;7.830;2023-08-24T00:55:57;24.40;99.90
1686;DHT22;840;47.980;7.830;2023-08-24T00:58:24;24.40;99.90
1686;DHT22;840;47.980;7.830;2023-08-24T01:00:53;24.30;99.90
1686;DHT22;840;47.980;7.830;2023-08-24T01:03:22;24.30;99.90
1686;DHT22;840;47.980;7.830;2023-08-24T01:05:49;24.20;99.90
1686;DHT22;840;47.980;7.830;2023-08-24T01:08:18;24.10;99.90
1686;DHT22;840;47.980;7.830;2023-08-24T01:10:51;24.10;99.90
1686;DHT22;840;47.980;7.830;2023-08-24T01:13:25;24.10;99.90
1686;DHT22;840;47.980;7.830;2023-08-24T01:16:00;24.00;99.90
1686;DHT22;840;47.980;7.830;2023-08-24T01:18:29;24.00;99.90
1686;DHT22;840;47.980;7.830;2023-08-24T01:20:57;24.00;99.90
1686;DHT22;840;47.980;7.830;2023-08-24T01:23:36;24.00;99.90
1686;DHT22;840;47.980;7.830;2023-08-24T01:26:10;24.00;99.90
1686;DHT22;840;47.980;7.830;2023-08-24T01:28:38;24.00;99.90
1686;DHT22;840;47.980;7.830;2023-08-24T01:31:04;24.00;99.90
1686;DHT22;840;47.980;7.830;2023-08-24T01:33:31;24.00;99.90
1686;DHT22;840;47.980;7.830;2023-08-24T01:35:58;24.00;99.90
1686;DHT22;840;47.980;7.830;2023-08-24T01:38:25;24.00;99.90
1686;DHT22;840;47.980;7.830;2023-08-24T01:40:59;24.00;99.90
1686;DHT22;840;47.980;7.830;2023-08-24T01:43:30;24.00;99.90
1686;DHT22;840;47.980;7.830;2023-08-24T01:46:00;24.00;99.90
1686;DHT22;840;47.980;7.830;2023-08-24T01:48:29;24.00;99.90
1686;DHT22;840;47.980;7.830;2023-08-24T01:50:57;24.00;99.90
1686;DHT22;840;47.980;7.830;2023-08-24T01:53:25;24.00;99.90
1686;DHT22;840;47.980;7.830;2023-08-24T01:55:52;24.00;99.90
1686;DHT22;840;47.980;7.830;2023-08-24T01:58:20;24.00;99.90
1686;DHT22;840;47.980;7.830;2023-08-24T02:00:48;24.00;99.90
1686;DHT22;840;47.980;7.830;2023-08-24T02:03:15;24.00;99.90
1686;DHT22;840;47.980;7.830;2023-08-24T02:05:42;24.00;99.90
1686;DHT22;840;47.980;7.830;2023-08-24T02:08:09;24.00;99.90
1686;DHT22;840;47.980;7.830;2023-08-24T02:10:35;24.00;99.90
1686;DHT22;840;47.980;7.830;2023-08-24T02:13:02;24.00;99.90
1686;DHT22;840;47.980;7.830;2023-08-24T02:15:29;24.00;99.90
1686;DHT22;840;47.980;7.830;2023-08-24T02:17:57;24.00;99.90
1686;DHT22;840;47.980;7.830;2023-08-24T02:20:24;24.00;99.90
1686;DHT22;840;47.980;7.830;2023-08-24T02:22:51;23.90;99.90
1686;DHT22;840;47.980;7.830;2023-08-24T02:25:17;23.90;99.90
1686;DHT22;840;47.980;7.830;2023-08-24T02:27:44;23.90;99.90
1686;DHT22;840;47.980;7.830;2023-08-24T02:30:12;23.90;99.90
1686;DHT22;840;47.980;7.830;2023-08-24T02:32:39;23.90;99.90
1686;DHT22;840;47.980;7.830;2023-08-24T02:35:08;24.00;99.90
1686;DHT22;840;47.980;7.830;2023-08-24T02:37:35;24.00;99.90
1686;DHT22;840;47.980;7.830;2023-08-24T02:40:02;24.00;99.90
1686;DHT22;840;47.980;7.830;2023-08-24T02:42:30;24.00;99.90
1686;DHT22;840;47.980;7.830;2023-08-24T02:44:57;23.90;99.90
1686;DHT22;840;47.980;7.830;2023-08-24T02:47:24;23.90;99.90
1686;DHT22;840;47.980;7.830;2023-08-24T02:49:50;24.00;99.90
1686;DHT22;840;47.980;7.830;2023-08-24T02:52:19;23.90;99.90
1686;DHT22;840;47.980;7.830;2023-08-24T02:54:45;23.90;99.90
1686;DHT22;840;47.980;7.830;2023-08-24T02:57:12;23.90;99.90
1686;DHT22;840;47.980;7.830;2023-08-24T02:59:39;24.00;99.90
1686;DHT22;840;47.980;7.830;2023-08-24T03:02:08;24.00;99.90
1686;DHT22;840;47.980;7.830;2023-08-24T03:04:35;23.90;99.90
1686;DHT22;840;47.980;7.830;2023-08-24T03:07:02;23.90;99.90
1686;DHT22;840;47.980;7.830;2023-08-24T03:09:30;23.90;99.90
1686;DHT22;840;47.980;7.830;2023-08-24T03:11:57;23.90;99.90
1686;DHT22;840;47.980;7.830;2023-08-24T03:14:23;23.80;99.90
1686;DHT22;840;47.980;7.830;2023-08-24T03:16:50;23.80;99.90
1686;DHT22;840;47.980;7.830;2023-08-24T03:19:17;23.80;99.90
1686;DHT22;840;47.980;7.830;2023-08-24T03:21:44;23.80;99.90
1686;DHT22;840;47.980;7.830;2023-08-24T03:24:11;23.80;99.90
1686;DHT22;840;47.980;7.830;2023-08-24T03:26:39;23.70;99.90
1686;DHT22;840;47.980;7.830;2023-08-24T03:29:06;23.70;99.90
1686;DHT22;840;47.980;7.830;2023-08-24T03:31:32;23.60;99.90
1686;DHT22;840;47.980;7.830;2023-08-24T03:33:59;23.60;99.90
1686;DHT22;840;47.980;7.830;2023-08-24T03:36:26;23.50;99.90
1686;DHT22;840;47.980;7.830;2023-08-24T03:38:53;23.50;99.90
1686;DHT22;840;47.980;7.830;2023-08-24T03:41:20;23.40;99.90
1686;DHT22;840;47.980;7.830;2023-08-24T03:43:48;23.40;99.90
1686;DHT22;840;47.980;7.830;2023-08-24T03:46:15;23.30;99.90
1686;DHT22;840;47.980;7.830;2023-08-24T03:48:42;23.30;99.90
1686;DHT22;840;47.980;7.830;2023-08-24T03:51:09;23.30;99.90
1686;DHT22;840;47.980;7.830;2023-08-24T03:53:35;23.30;99.90
1686;DHT22;840;47.980;7.830;2023-08-24T03:56:03;23.30;99.90
1686;DHT22;840;47.980;7.830;2023-08-24T03:58:29;23.20;99.90
1686;DHT22;840;47.980;7.830;2023-08-24T04:00:57;23.20;99.90
1686;DHT22;840;47.980;7.830;2023-08-24T04:03:24;23.20;99.90
1686;DHT22;840;47.980;7.830;2023-08-24T04:05:51;23.20;99.90
1686;DHT22;840;47.980;7.830;2023-08-24T04:08:18;23.20;99.90
1686;DHT22;840;47.980;7.830;2023-08-24T04:10:44;23.20;99.90
1686;DHT22;840;47.980;7.830;2023-08-24T04:13:11;23.20;99.90
1686;DHT22;840;47.980;7.830;2023-08-24T04:15:38;23.20;99.90
1686;DHT22;840;47.980;7.830;2023-08-24T04:18:06;23.20;99.90
1686;DHT22;840;47.980;7.830;2023-08-24T04:20:33;23.20;99.90
1686;DHT22;840;47.980;7.830;2023-08-24T04:23:01;23.20;99.90
1686;DHT22;840;47.980;7.830;2023-08-24T04:25:29;23.10;99.90
1686;DHT22;840;47.980;7.830;2023-08-24T04:27:56;23.10;99.90
1686;DHT22;840;47.980;7.830;2023-08-24T04:30:23;23.10;99.90
1686;DHT22;840;47.980;7.830;2023-08-24T04:32:49;23.00;99.90
1686;DHT22;840;47.980;7.830;2023-08-24T04:35:18;23.00;99.90
1686;DHT22;840;47.980;7.830;2023-08-24T04:37:45;22.90;99.90
1686;DHT22;840;47.980;7.830;2023-08-24T04:40:12;22.80;99.90
1686;DHT22;840;47.980;7.830;2023-08-24T04:42:39;22.90;99.90
1686;DHT22;840;47.980;7.830;2023-08-24T04:45:06;22.90;99.90
1686;DHT22;840;47.980;7.830;2023-08-24T04:47:33;23.00;99.90
1686;DHT22;840;47.980;7.830;2023-08-24T04:50:00;23.00;99.90
1686;DHT22;840;47.980;7.830;2023-08-24T04:52:28;23.10;99.90
1686;DHT22;840;47.980;7.830;2023-08-24T04:54:55;23.10;99.90
1686;DHT22;840;47.980;7.830;2023-08-24T04:57:22;23.10;99.90
1686;DHT22;840;47.980;7.830;2023-08-24T04:59:48;23.10;99.90
1686;DHT22;840;47.980;7.830;2023-08-24T05:02:15;23.10;99.90
1686;DHT22;840;47.980;7.830;2023-08-24T05:04:42;23.10;99.90
1686;DHT22;840;47.980;7.830;2023-08-24T05:07:08;23.10;99.90
1686;DHT22;840;47.980;7.830;2023-08-24T05:09:37;23.20;99.90
1686;DHT22;840;47.980;7.830;2023-08-24T05:12:04;23.20;99.90
1686;DHT22;840;47.980;7.830;2023-08-24T05:14:32;23.20;99.90
1686;DHT22;840;47.980;7.830;2023-08-24T05:16:59;23.20;99.90
1686;DHT22;840;47.980;7.830;2023-08-24T05:19:26;23.20;99.90
1686;DHT22;840;47.980;7.830;2023-08-24T05:21:52;23.20;99.90
1686;DHT22;840;47.980;7.830;2023-08-24T05:24:19;23.20;99.90
1686;DHT22;840;47.980;7.830;2023-08-24T05:26:47;23.30;99.90
1686;DHT22;840;47.980;7.830;2023-08-24T05:29:14;23.30;99.90
1686;DHT22;840;47.980;7.830;2023-08-24T05:31:40;23.30;99.90
1686;DHT22;840;47.980;7.830;2023-08-24T05:34:07;23.40;99.90
1686;DHT22;840;47.980;7.830;2023-08-24T05:36:34;23.40;99.90
1686;DHT22;840;47.980;7.830;2023-08-24T05:39:01;23.40;99.90
1686;DHT22;840;47.980;7.830;2023-08-24T05:41:28;23.40;99.90
1686;DHT22;840;47.980;7.830;2023-08-24T05:43:56;23.40;99.90
1686;DHT22;840;47.980;7.830;2023-08-24T05:46:23;23.40;99.90
1686;DHT22;840;47.980;7.830;2023-08-24T05:48:50;23.40;99.90
1686;DHT22;840;47.980;7.830;2023-08-24T05:51:16;23.30;99.90
1686;DHT22;840;47.980;7.830;2023-08-24T05:53:43;23.30;99.90
1686;DHT22;840;47.980;7.830;2023-08-24T05:56:10;23.20;99.90
1686;DHT22;840;47.980;7.830;2023-08-24T05:58:36;23.20;99.90
1686;DHT22;840;47.980;7.830;2023-08-24T06:01:04;23.10;99.90
1686;DHT22;840;47.980;7.830;2023-08-24T06:03:31;23.20;99.90
1686;DHT22;840;47.980;7.830;2023-08-24T06:06:02;23.10;99.90
1686;DHT22;840;47.980;7.830;2023-08-24T06:08:29;23.10;99.90
1686;DHT22;840;47.980;7.830;2023-08-24T06:10:56;23.10;99.90
1686;DHT22;840;47.980;7.830;2023-08-24T06:13:23;23.10;99.90
1686;DHT22;840;47.980;7.830;2023-08-24T06:15:50;23.20;99.90
1686;DHT22;840;47.980;7.830;2023-08-24T06:18:18;23.30;99.90
1686;DHT22;840;47.980;7.830;2023-08-24T06:20:45;23.40;99.90
1686;DHT22;840;47.980;7.830;2023-08-24T06:23:16;23.40;99.90
1686;DHT22;840;47.980;7.830;2023-08-24T06:25:43;23.40;99.90
1686;DHT22;840;47.980;7.830;2023-08-24T06:28:10;23.30;99.90
1686;DHT22;840;47.980;7.830;2023-08-24T06:30:37;23.10;99.90
1686;DHT22;840;47.980;7.830;2023-08-24T06:33:05;23.00;99.90
1686;DHT22;840;47.980;7.830;2023-08-24T06:35:34;23.10;99.90
1686;DHT22;840;47.980;7.830;2023-08-24T06:38:00;23.10;99.90
1686;DHT22;840;47.980;7.830;2023-08-24T06:40:27;23.20;99.90
1686;DHT22;840;47.980;7.830;2023-08-24T06:42:54;23.20;99.90
1686;DHT22;840;47.980;7.830;2023-08-24T06:45:21;23.20;99.90
1686;DHT22;840;47.980;7.830;2023-08-24T06:47:48;23.30;99.90
1686;DHT22;840;47.980;7.830;2023-08-24T06:50:15;23.30;99.90
1686;DHT22;840;47.980;7.830;2023-08-24T06:52:43;23.40;99.90
1686;DHT22;840;47.980;7.830;2023-08-24T06:55:10;23.50;99.90
1686;DHT22;840;47.980;7.830;2023-08-24T06:57:37;23.60;99.90
1686;DHT22;840;47.980;7.830;2023-08-24T07:00:05;23.60;99.90
1686;DHT22;840;47.980;7.830;2023-08-24T07:02:34;23.80;99.90
1686;DHT22;840;47.980;7.830;2023-08-24T07:05:01;23.80;99.90
1686;DHT22;840;47.980;7.830;2023-08-24T07:07:33;23.90;99.90
1686;DHT22;840;47.980;7.830;2023-08-24T07:10:01;23.90;99.90
1686;DHT22;840;47.980;7.830;2023-08-24T07:12:28;23.90;99.90
1686;DHT22;840;47.980;7.830;2023-08-24T07:14:55;23.80;99.90
1686;DHT22;840;47.980;7.830;2023-08-24T07:17:22;23.90;99.90
1686;DHT22;840;47.980;7.830;2023-08-24T07:19:49;23.90;99.90
1686;DHT22;840;47.980;7.830;2023-08-24T07:22:16;24.00;99.90
1686;DHT22;840;47.980;7.830;2023-08-24T07:24:42;24.10;99.90
1686;DHT22;840;47.980;7.830;2023-08-24T07:27:11;24.10;99.90
1686;DHT22;840;47.980;7.830;2023-08-24T07:29:38;24.20;99.90
1686;DHT22;840;47.980;7.830;2023-08-24T07:32:05;24.30;99.90
1686;DHT22;840;47.980;7.830;2023-08-24T07:34:31;24.40;99.90
1686;DHT22;840;47.980;7.830;2023-08-24T07:36:58;24.40;99.90
1686;DHT22;840;47.980;7.830;2023-08-24T07:39:25;24.50;99.90
1686;DHT22;840;47.980;7.830;2023-08-24T07:41:52;24.60;99.90
1686;DHT22;840;47.980;7.830;2023-08-24T07:44:20;24.70;99.90
1686;DHT22;840;47.980;7.830;2023-08-24T07:46:47;24.80;99.90
1686;DHT22;840;47.980;7.830;2023-08-24T07:49:14;24.90;99.90
1686;DHT22;840;47.980;7.830;2023-08-24T07:51:41;25.00;99.90
1686;DHT22;840;47.980;7.830;2023-08-24T07:54:09;25.10;99.90
1686;DHT22;840;47.980;7.830;2023-08-24T07:56:36;25.30;99.90
1686;DHT22;840;47.980;7.830;2023-08-24T07:59:03;25.50;99.90
1686;DHT22;840;47.980;7.830;2023-08-24T08:01:31;25.70;99.90
1686;DHT22;840;47.980;7.830;2023-08-24T08:03:58;25.90;99.90
1686;DHT22;840;47.980;7.830;2023-08-24T08:06:25;26.00;99.90
1686;DHT22;840;47.980;7.830;2023-08-24T08:08:53;26.20;99.90
1686;DHT22;840;47.980;7.830;2023-08-24T08:11:19;26.30;99.90
1686;DHT22;840;47.980;7.830;2023-08-24T08:13:46;26.40;99.90
1686;DHT22;840;47.980;7.830;2023-08-24T08:16:13;26.40;99.90
1686;DHT22;840;47.980;7.830;2023-08-24T08:18:41;26.50;99.90
1686;DHT22;840;47.980;7.830;2023-08-24T08:21:09;26.50;99.90
1686;DHT22;840;47.980;7.830;2023-08-24T08:23:36;26.50;99.90
1686;DHT22;840;47.980;7.830;2023-08-24T08:26:04;26.60;99.90
1686;DHT22;840;47.980;7.830;2023-08-24T08:28:31;26.60;99.90
1686;DHT22;840;47.980;7.830;2023-08-24T08:31:00;26.60;99.90
1686;DHT22;840;47.980;7.830;2023-08-24T08:33:27;26.60;99.90
1686;DHT22;840;47.980;7.830;2023-08-24T08:35:55;26.60;99.90
1686;DHT22;840;47.980;7.830;2023-08-24T08:38:22;26.60;99.90
1686;DHT22;840;47.980;7.830;2023-08-24T08:40:52;26.70;99.90
1686;DHT22;840;47.980;7.830;2023-08-24T08:43:21;26.60;99.90
1686;DHT22;840;47.980;7.830;2023-08-24T08:45:49;26.60;99.90
1686;DHT22;840;47.980;7.830;2023-08-24T08:48:18;26.60;99.90
1686;DHT22;840;47.980;7.830;2023-08-24T08:50:46;26.70;99.90
1686;DHT22;840;47.980;7.830;2023-08-24T08:53:15;26.70;99.90
1686;DHT22;840;47.980;7.830;2023-08-24T08:55:43;26.60;99.90
1686;DHT22;840;47.980;7.830;2023-08-24T08:58:11;26.70;99.90
1686;DHT22;840;47.980;7.830;2023-08-24T09:00:38;26.70;99.90
1686;DHT22;840;47.980;7.830;2023-08-24T09:03:04;26.80;99.90
1686;DHT22;840;47.980;7.830;2023-08-24T09:05:32;26.80;99.90
1686;DHT22;840;47.980;7.830;2023-08-24T09:07:59;26.80;99.90
1686;DHT22;840;47.980;7.830;2023-08-24T09:10:29;26.90;99.90
1686;DHT22;840;47.980;7.830;2023-08-24T09:12:56;26.90;99.90
1686;DHT22;840;47.980;7.830;2023-08-24T09:15:27;27.00;99.90
1686;DHT22;840;47.980;7.830;2023-08-24T09:17:54;27.00;99.90
1686;DHT22;840;47.980;7.830;2023-08-24T09:20:22;27.00;99.90
1686;DHT22;840;47.980;7.830;2023-08-24T09:22:48;27.00;99.90
1686;DHT22;840;47.980;7.830;2023-08-24T09:25:16;27.00;99.90
1686;DHT22;840;47.980;7.830;2023-08-24T09:27:44;27.10;99.90
1686;DHT22;840;47.980;7.830;2023-08-24T09:30:11;27.10;99.90
1686;DHT22;840;47.980;7.830;2023-08-24T09:32:38;27.20;99.90
1686;DHT22;840;47.980;7.830;2023-08-24T09:35:08;27.30;99.90
1686;DHT22;840;47.980;7.830;2023-08-24T09:37:36;27.40;99.90
1686;DHT22;840;47.980;7.830;2023-08-24T09:40:03;27.40;99.90
1686;DHT22;840;47.980;7.830;2023-08-24T09:42:37;27.40;99.90
1686;DHT22;840;47.980;7.830;2023-08-24T09:45:07;27.40;99.90
1686;DHT22;840;47.980;7.830;2023-08-24T09:47:35;27.40;99.90
1686;DHT22;840;47.980;7.830;2023-08-24T09:50:02;27.40;99.90
1686;DHT22;840;47.980;7.830;2023-08-24T09:52:32;27.40;99.90
1686;DHT22;840;47.980;7.830;2023-08-24T09:55:02;27.50;99.90
1686;DHT22;840;47.980;7.830;2023-08-24T09:57:33;27.60;99.90
1686;DHT22;840;47.980;7.830;2023-08-24T10:00:03;27.80;99.90
1686;DHT22;840;47.980;7.830;2023-08-24T10:02:38;27.90;99.90
1686;DHT22;840;47.980;7.830;2023-08-24T10:05:07;28.00;99.90
1686;DHT22;840;47.980;7.830;2023-08-24T10:07:36;28.10;99.90
1686;DHT22;840;47.980;7.830;2023-08-24T10:10:07;28.20;99.90
1686;DHT22;840;47.980;7.830;2023-08-24T10:12:43;28.40;99.90
1686;DHT22;840;47.980;7.830;2023-08-24T10:15:10;28.50;99.90
1686;DHT22;840;47.980;7.830;2023-08-24T10:17:39;28.50;99.90
1686;DHT22;840;47.980;7.830;2023-08-24T10:20:10;28.50;99.90
1686;DHT22;840;47.980;7.830;2023-08-24T10:22:37;28.60;99.90
1686;DHT22;840;47.980;7.830;2023-08-24T10:25:08;28.70;99.90
1686;DHT22;840;47.980;7.830;2023-08-24T10:27:35;28.70;99.90
1686;DHT22;840;47.980;7.830;2023-08-24T10:30:02;28.80;99.90
1686;DHT22;840;47.980;7.830;2023-08-24T10:32:29;28.90;99.90
1686;DHT22;840;47.980;7.830;2023-08-24T10:34:58;29.00;99.90
1686;DHT22;840;47.980;7.830;2023-08-24T10:37:26;29.10;99.90
1686;DHT22;840;47.980;7.830;2023-08-24T10:39:53;29.20;99.90
1686;DHT22;840;47.980;7.830;2023-08-24T10:42:20;29.30;99.90
1686;DHT22;840;47.980;7.830;2023-08-24T10:44:47;29.30;99.90
1686;DHT22;840;47.980;7.830;2023-08-24T10:47:16;29.40;99.90
1686;DHT22;840;47.980;7.830;2023-08-24T10:49:45;29.40;99.90
1686;DHT22;840;47.980;7.830;2023-08-24T10:52:25;29.50;99.90
1686;DHT22;840;47.980;7.830;2023-08-24T10:54:53;29.60;99.90
1686;DHT22;840;47.980;7.830;2023-08-24T10:57:22;29.50;99.90
1686;DHT22;840;47.980;7.830;2023-08-24T11:00:00;29.50;99.90
1686;DHT22;840;47.980;7.830;2023-08-24T11:02:44;29.50;99.90
1686;DHT22;840;47.980;7.830;2023-08-24T11:05:19;29.50;99.90
1686;DHT22;840;47.980;7.830;2023-08-24T11:08:03;29.60;99.90
1686;DHT22;840;47.980;7.830;2023-08-24T11:10:44;29.60;99.90
1686;DHT22;840;47.980;7.830;2023-08-24T11:13:12;29.70;99.90
1686;DHT22;840;47.980;7.830;2023-08-24T11:15:41;29.80;99.90
1686;DHT22;840;47.980;7.830;2023-08-24T11:18:29;29.90;99.90
1686;DHT22;840;47.980;7.830;2023-08-24T11:20:57;29.90;99.90
1686;DHT22;840;47.980;7.830;2023-08-24T11:23:28;30.00;99.90
1686;DHT22;840;47.980;7.830;2023-08-24T11:25:58;30.10;99.90
1686;DHT22;840;47.980;7.830;2023-08-24T11:28:26;30.10;99.90
1686;DHT22;840;47.980;7.830;2023-08-24T11:30:53;30.20;99.90
1686;DHT22;840;47.980;7.830;2023-08-24T11:33:28;30.40;99.90
1686;DHT22;840;47.980;7.830;2023-08-24T11:35:55;30.50;99.90
1686;DHT22;840;47.980;7.830;2023-08-24T11:38:22;30.70;99.90
1686;DHT22;840;47.980;7.830;2023-08-24T11:40:51;30.80;99.90
1686;DHT22;840;47.980;7.830;2023-08-24T11:43:24;30.90;99.90
1686;DHT22;840;47.980;7.830;2023-08-24T11:45:53;31.00;99.90
1686;DHT22;840;47.980;7.830;2023-08-24T11:48:24;31.10;99.90
1686;DHT22;840;47.980;7.830;2023-08-24T11:50:50;31.00;99.90
1686;DHT22;840;47.980;7.830;2023-08-24T11:53:19;31.00;99.90
1686;DHT22;840;47.980;7.830;2023-08-24T11:55:46;31.10;99.90
1686;DHT22;840;47.980;7.830;2023-08-24T11:58:17;31.20;99.90
1686;DHT22;840;47.980;7.830;2023-08-24T12:00:45;31.30;99.90
1686;DHT22;840;47.980;7.830;2023-08-24T12:03:12;31.40;99.90
1686;DHT22;840;47.980;7.830;2023-08-24T12:05:39;31.50;99.90
1686;DHT22;840;47.980;7.830;2023-08-24T12:08:06;31.60;99.90
1686;DHT22;840;47.980;7.830;2023-08-24T12:10:33;31.70;99.90
1686;DHT22;840;47.980;7.830;2023-08-24T12:13:02;31.70;99.90
1686;DHT22;840;47.980;7.830;2023-08-24T12:15:34;31.70;99.90
1686;DHT22;840;47.980;7.830;2023-08-24T12:18:07;31.60;99.90
1686;DHT22;840;47.980;7.830;2023-08-24T12:20:34;31.70;99.90
1686;DHT22;840;47.980;7.830;2023-08-24T12:23:01;31.90;99.90
1686;DHT22;840;47.980;7.830;2023-08-24T12:25:27;31.90;99.90
1686;DHT22;840;47.980;7.830;2023-08-24T12:28:08;32.10;99.90
1686;DHT22;840;47.980;7.830;2023-08-24T12:30:48;32.50;99.90
1686;DHT22;840;47.980;7.830;2023-08-24T12:33:22;33.10;99.90
1686;DHT22;840;47.980;7.830;2023-08-24T12:35:49;33.60;99.90
1686;DHT22;840;47.980;7.830;2023-08-24T12:38:16;34.20;99.90
1686;DHT22;840;47.980;7.830;2023-08-24T12:40:43;35.00;99.90
1686;DHT22;840;47.980;7.830;2023-08-24T12:43:10;35.70;97.60
1686;DHT22;840;47.980;7.830;2023-08-24T12:45:36;36.30;96.50
1686;DHT22;840;47.980;7.830;2023-08-24T12:48:05;36.90;95.40
1686;DHT22;840;47.980;7.830;2023-08-24T12:50:32;37.30;93.80
1686;DHT22;840;47.980;7.830;2023-08-24T12:52:59;37.70;92.50
1686;DHT22;840;47.980;7.830;2023-08-24T12:55:26;38.20;91.30
1686;DHT22;840;47.980;7.830;2023-08-24T12:57:53;38.60;90.20
1686;DHT22;840;47.980;7.830;2023-08-24T13:00:20;38.80;89.20
1686;DHT22;840;47.980;7.830;2023-08-24T13:02:47;38.90;85.60
1686;DHT22;840;47.980;7.830;2023-08-24T13:05:16;39.00;86.00
1686;DHT22;840;47.980;7.830;2023-08-24T13:07:43;39.20;85.80
1686;DHT22;840;47.980;7.830;2023-08-24T13:10:10;39.30;83.60
1686;DHT22;840;47.980;7.830;2023-08-24T13:12:37;39.30;83.30
1686;DHT22;840;47.980;7.830;2023-08-24T13:15:04;39.20;82.80
1686;DHT22;840;47.980;7.830;2023-08-24T13:17:32;38.80;82.20
1686;DHT22;840;47.980;7.830;2023-08-24T13:19:59;38.50;83.60
1686;DHT22;840;47.980;7.830;2023-08-24T13:22:27;38.30;82.30
1686;DHT22;840;47.980;7.830;2023-08-24T13:24:54;38.00;80.00
1686;DHT22;840;47.980;7.830;2023-08-24T13:27:20;38.00;84.90
1686;DHT22;840;47.980;7.830;2023-08-24T13:29:47;38.20;82.90
1686;DHT22;840;47.980;7.830;2023-08-24T13:32:14;38.10;83.10
1686;DHT22;840;47.980;7.830;2023-08-24T13:34:41;38.10;86.60
1686;DHT22;840;47.980;7.830;2023-08-24T13:37:07;38.20;83.80
1686;DHT22;840;47.980;7.830;2023-08-24T13:39:35;38.20;83.40
1686;DHT22;840;47.980;7.830;2023-08-24T13:42:02;38.00;83.00
1686;DHT22;840;47.980;7.830;2023-08-24T13:44:29;37.80;79.10
1686;DHT22;840;47.980;7.830;2023-08-24T13:46:56;37.80;78.70
1686;DHT22;840;47.980;7.830;2023-08-24T13:49:22;38.00;84.80
1686;DHT22;840;47.980;7.830;2023-08-24T13:51:49;38.00;82.20
1686;DHT22;840;47.980;7.830;2023-08-24T13:54:17;38.00;77.90
1686;DHT22;840;47.980;7.830;2023-08-24T13:56:51;38.10;75.30
1686;DHT22;840;47.980;7.830;2023-08-24T13:59:19;38.20;77.10
1686;DHT22;840;47.980;7.830;2023-08-24T14:01:46;38.10;73.00
1686;DHT22;840;47.980;7.830;2023-08-24T14:04:13;38.10;72.70
1686;DHT22;840;47.980;7.830;2023-08-24T14:06:40;38.10;71.20
1686;DHT22;840;47.980;7.830;2023-08-24T14:09:07;38.20;72.00
1686;DHT22;840;47.980;7.830;2023-08-24T14:11:34;38.40;74.50
1686;DHT22;840;47.980;7.830;2023-08-24T14:14:02;38.60;73.70
1686;DHT22;840;47.980;7.830;2023-08-24T14:16:28;38.60;66.80
1686;DHT22;840;47.980;7.830;2023-08-24T14:18:55;38.50;65.40
1686;DHT22;840;47.980;7.830;2023-08-24T14:21:22;38.50;64.90
1686;DHT22;840;47.980;7.830;2023-08-24T14:23:50;38.40;64.10
1686;DHT22;840;47.980;7.830;2023-08-24T14:26:17;38.50;65.00
1686;DHT22;840;47.980;7.830;2023-08-24T14:28:47;38.60;65.20
1686;DHT22;840;47.980;7.830;2023-08-24T14:31:16;38.60;64.10
1686;DHT22;840;47.980;7.830;2023-08-24T14:33:43;38.70;64.30
1686;DHT22;840;47.980;7.830;2023-08-24T14:36:09;38.80;64.10
1686;DHT22;840;47.980;7.830;2023-08-24T14:38:38;38.80;61.00
1686;DHT22;840;47.980;7.830;2023-08-24T14:41:05;38.80;62.20
1686;DHT22;840;47.980;7.830;2023-08-24T14:43:32;38.80;61.70
1686;DHT22;840;47.980;7.830;2023-08-24T14:45:59;38.90;59.60
1686;DHT22;840;47.980;7.830;2023-08-24T14:48:27;39.00;59.00
1686;DHT22;840;47.980;7.830;2023-08-24T14:50:54;39.00;60.90
1686;DHT22;840;47.980;7.830;2023-08-24T14:53:22;38.90;60.00
1686;DHT22;840;47.980;7.830;2023-08-24T14:55:49;38.80;59.00
1686;DHT22;840;47.980;7.830;2023-08-24T14:58:15;38.90;63.30
1686;DHT22;840;47.980;7.830;2023-08-24T15:00:42;38.90;60.40
1686;DHT22;840;47.980;7.830;2023-08-24T15:03:11;38.60;61.30
1686;DHT22;840;47.980;7.830;2023-08-24T15:05:42;38.30;62.80
1686;DHT22;840;47.980;7.830;2023-08-24T15:08:09;38.00;63.80
1686;DHT22;840;47.980;7.830;2023-08-24T15:10:36;37.70;64.80
1686;DHT22;840;47.980;7.830;2023-08-24T15:13:03;37.40;65.50
1686;DHT22;840;47.980;7.830;2023-08-24T15:15:30;37.20;66.60
1686;DHT22;840;47.980;7.830;2023-08-24T15:17:57;36.90;68.10
1686;DHT22;840;47.980;7.830;2023-08-24T15:20:26;36.60;69.40
1686;DHT22;840;47.980;7.830;2023-08-24T15:22:58;36.40;70.00
1686;DHT22;840;47.980;7.830;2023-08-24T15:25:30;36.20;73.40
1686;DHT22;840;47.980;7.830;2023-08-24T15:28:01;35.90;79.70
1686;DHT22;840;47.980;7.830;2023-08-24T15:30:30;35.10;84.80
1686;DHT22;840;47.980;7.830;2023-08-24T15:32:58;34.90;88.90
1686;DHT22;840;47.980;7.830;2023-08-24T15:35:27;34.80;89.80
1686;DHT22;840;47.980;7.830;2023-08-24T15:38:01;34.60;90.20
1686;DHT22;840;47.980;7.830;2023-08-24T15:40:35;34.20;90.50
1686;DHT22;840;47.980;7.830;2023-08-24T15:43:04;33.80;91.20
1686;DHT22;840;47.980;7.830;2023-08-24T15:45:33;33.50;92.30
1686;DHT22;840;47.980;7.830;2023-08-24T15:48:03;33.50;93.00
1686;DHT22;840;47.980;7.830;2023-08-24T15:50:32;33.10;93.60
1686;DHT22;840;47.980;7.830;2023-08-24T15:53:04;32.80;94.30
1686;DHT22;840;47.980;7.830;2023-08-24T15:55:40;32.70;95.00
1686;DHT22;840;47.980;7.830;2023-08-24T15:58:07;32.70;95.30
1686;DHT22;840;47.980;7.830;2023-08-24T16:00:34;32.60;95.00
1686;DHT22;840;47.980;7.830;2023-08-24T16:03:06;32.60;95.60
1686;DHT22;840;47.980;7.830;2023-08-24T16:05:34;32.50;95.70
1686;DHT22;840;47.980;7.830;2023-08-24T16:08:07;32.30;95.80
1686;DHT22;840;47.980;7.830;2023-08-24T16:10:39;32.30;96.30
1686;DHT22;840;47.980;7.830;2023-08-24T16:13:13;32.30;96.60
1686;DHT22;840;47.980;7.830;2023-08-24T16:15:45;32.30;97.50
1686;DHT22;840;47.980;7.830;2023-08-24T16:18:14;32.40;97.10
1686;DHT22;840;47.980;7.830;2023-08-24T16:20:44;32.50;97.10
1686;DHT22;840;47.980;7.830;2023-08-24T16:23:19;32.60;97.60